Felix-Klein-Gymnasium, Gttingen, 150m NN
Weather data: current Sonntag, 21.04.2019 04:45
Date Time Temp. O. Hum. O. Baro. Rain Wind Direction Direction Sunshine Dew point Wind chill Wind gust
21.04.2019 04:45 5,3 C 84 % 1023,1 hPa 0,0 mm 0,0 km/h (0 Bft) S-SE 147 0 min 2,8 C 5,3 C 0,0 km/h (0 Bft)
21.04.2019 04:30 5,5 C 84 % 1023,2 hPa 0,0 mm 0,0 km/h (0 Bft) S-SE 147 0 min 3,0 C 5,5 C 0,0 km/h (0 Bft)
21.04.2019 04:15 5,8 C 83 % 1023,3 hPa 0,0 mm 0,0 km/h (0 Bft) SE 146 0 min 3,1 C 5,8 C 0,0 km/h (0 Bft)
21.04.2019 04:00 6,2 C 83 % 1023,4 hPa 0,0 mm 0,0 km/h (0 Bft) S-SE 162 0 min 3,5 C 6,2 C 0,0 km/h (0 Bft)
21.04.2019 03:45 6,4 C 83 % 1023,5 hPa 0,0 mm 0,0 km/h (0 Bft) S-SE 161 0 min 3,7 C 6,4 C 0,0 km/h (0 Bft)
21.04.2019 03:30 6,8 C 82 % 1023,6 hPa 0,0 mm 0,0 km/h (0 Bft) S-SE 161 0 min 3,9 C 6,8 C 0,0 km/h (0 Bft)
21.04.2019 03:15 6,9 C 81 % 1023,5 hPa 0,0 mm 0,0 km/h (0 Bft) S-SE 161 0 min 3,9 C 6,9 C 0,0 km/h (0 Bft)
21.04.2019 03:00 7,1 C 80 % 1023,7 hPa 0,0 mm 0,0 km/h (0 Bft) S-SE 159 0 min 3,9 C 7,1 C 0,0 km/h (0 Bft)
21.04.2019 02:45 7,1 C 79 % 1023,8 hPa 0,0 mm 0,0 km/h (0 Bft) S-SE 159 0 min 3,7 C 7,1 C 0,0 km/h (0 Bft)
21.04.2019 02:30 7,3 C 78 % 1023,9 hPa 0,0 mm 0,0 km/h (0 Bft) S-SE 159 0 min 3,7 C 7,3 C 0,0 km/h (0 Bft)
21.04.2019 02:15 7,5 C 78 % 1024,1 hPa 0,0 mm 0,0 km/h (0 Bft) S-SE 159 0 min 3,9 C 7,5 C 0,0 km/h (0 Bft)
21.04.2019 02:00 7,7 C 77 % 1024,1 hPa 0,0 mm 0,0 km/h (0 Bft) S-SE 158 0 min 3,9 C 7,7 C 0,0 km/h (0 Bft)
21.04.2019 01:45 8,3 C 75 % 1024,2 hPa 0,0 mm 0,0 km/h (0 Bft) S-SE 149 0 min 4,1 C 8,3 C 0,0 km/h (0 Bft)
21.04.2019 01:30 8,9 C 72 % 1024,3 hPa 0,0 mm 0,0 km/h (0 Bft) E 98 0 min 4,1 C 8,9 C 0,0 km/h (0 Bft)
21.04.2019 01:15 9,6 C 69 % 1024,4 hPa 0,0 mm 0,0 km/h (0 Bft) E 83 0 min 4,2 C 9,6 C 0,0 km/h (0 Bft)
21.04.2019 01:00 10,1 C 67 % 1024,6 hPa 0,0 mm 0,0 km/h (0 Bft) E 80 0 min 4,3 C 10,1 C 0,0 km/h (0 Bft)
21.04.2019 00:45 10,8 C 64 % 1024,7 hPa 0,0 mm 0,0 km/h (0 Bft) N-NW 337 0 min 4,3 C 10,8 C 0,0 km/h (0 Bft)
21.04.2019 00:30 11,5 C 62 % 1024,8 hPa 0,0 mm 0,0 km/h (0 Bft) N-NW 336 0 min 4,5 C 11,5 C 0,0 km/h (0 Bft)
21.04.2019 00:15 12,3 C 59 % 1024,9 hPa 0,0 mm 0,0 km/h (0 Bft) N-NW 336 0 min 4,5 C 12,3 C 0,0 km/h (0 Bft)
21.04.2019 00:00 12,6 C 56 % 1024,9 hPa 0,0 mm 0,0 km/h (0 Bft) N-NW 336 0 min 4,1 C 12,6 C 0,0 km/h (0 Bft)
20.04.2019 23:45 13,0 C 54 % 1025,0 hPa 0,0 mm 0,0 km/h (0 Bft) N 0 0 min 3,9 C 13,0 C 0,0 km/h (0 Bft)
20.04.2019 23:30 13,4 C 53 % 1025,0 hPa 0,0 mm 0,0 km/h (0 Bft) N 0 0 min 4,0 C 13,4 C 0,0 km/h (0 Bft)
20.04.2019 23:15 13,7 C 52 % 1025,1 hPa 0,0 mm 0,0 km/h (0 Bft) N 0 0 min 4,0 C 13,7 C 0,0 km/h (0 Bft)
20.04.2019 23:00 14,1 C 52 % 1025,1 hPa 0,0 mm 0,0 km/h (0 Bft) N-NW 336 0 min 4,4 C 14,1 C 0,0 km/h (0 Bft)
20.04.2019 22:45 14,5 C 50 % 1025,0 hPa 0,0 mm 0,0 km/h (0 Bft) N-NW 336 0 min 4,2 C 14,5 C 0,0 km/h (0 Bft)
20.04.2019 22:30 15,1 C 49 % 1025,0 hPa 0,0 mm 0,0 km/h (0 Bft) N 350 0 min 4,5 C 15,1 C 0,0 km/h (0 Bft)
20.04.2019 22:15 15,7 C 47 % 1024,9 hPa 0,0 mm 0,0 km/h (0 Bft) N 350 0 min 4,4 C 15,7 C 0,0 km/h (0 Bft)
20.04.2019 22:00 16,2 C 46 % 1024,9 hPa 0,0 mm 0,0 km/h (0 Bft) N 350 0 min 4,6 C 16,2 C 0,0 km/h (0 Bft)
20.04.2019 21:45 16,5 C 44 % 1024,9 hPa 0,0 mm 0,2 km/h (0 Bft) N 351 0 min 4,2 C 16,5 C 1,6 km/h (1 Bft)
20.04.2019 21:30 16,8 C 42 % 1024,9 hPa 0,0 mm 6,8 km/h (2 Bft) N 350 0 min 3,8 C 16,8 C 11,3 km/h (2 Bft)
20.04.2019 21:15 17,0 C 42 % 1024,7 hPa 0,0 mm 4,8 km/h (1 Bft) NW 323 0 min 4,0 C 17,0 C 11,3 km/h (2 Bft)
20.04.2019 21:00 17,4 C 42 % 1024,7 hPa 0,0 mm 5,4 km/h (1 Bft) NW 314 0 min 4,4 C 17,4 C 9,7 km/h (2 Bft)
20.04.2019 20:45 18,0 C 41 % 1024,4 hPa 0,0 mm 7,1 km/h (2 Bft) N-NW 329 0 min 4,6 C 18,0 C 11,3 km/h (2 Bft)
20.04.2019 20:30 18,9 C 38 % 1024,3 hPa 0,0 mm 3,1 km/h (1 Bft) N-NW 333 0 min 4,3 C 18,9 C 12,9 km/h (3 Bft)
20.04.2019 20:15 19,6 C 36 % 1024,3 hPa 0,0 mm 1,9 km/h (1 Bft) N-NW 344 0 min 4,1 C 19,6 C 11,3 km/h (2 Bft)
20.04.2019 20:00 19,9 C 35 % 1024,2 hPa 0,0 mm 5,6 km/h (1 Bft) NE 37 0 min 4,0 C 19,9 C 16,1 km/h (3 Bft)
20.04.2019 19:45 20,2 C 35 % 1024,2 hPa 0,0 mm 6,7 km/h (2 Bft) N-NW 346 0 min 4,2 C 20,2 C 17,7 km/h (3 Bft)
20.04.2019 19:30 20,5 C 34 % 1024,2 hPa 0,0 mm 8,5 km/h (2 Bft) NE 54 0 min 4,1 C 20,5 C 19,3 km/h (3 Bft)
20.04.2019 19:15 20,7 C 34 % 1024,2 hPa 0,0 mm 10,7 km/h (2 Bft) N 11 0 min 4,3 C 20,7 C 20,9 km/h (4 Bft)
20.04.2019 19:00 20,8 C 34 % 1024,2 hPa 0,0 mm 15,7 km/h (3 Bft) NW 323 15 min 4,4 C 20,8 C 27,4 km/h (4 Bft)
20.04.2019 18:45 20,9 C 33 % 1024,3 hPa 0,0 mm 18,3 km/h (3 Bft) NW 313 15 min 4,0 C 20,9 C 30,6 km/h (5 Bft)
20.04.2019 18:30 21,3 C 34 % 1024,4 hPa 0,0 mm 16,6 km/h (3 Bft) N 355 15 min 4,8 C 21,3 C 30,6 km/h (5 Bft)
20.04.2019 18:15 21,4 C 33 % 1024,4 hPa 0,0 mm 13,9 km/h (3 Bft) N-NW 347 15 min 4,5 C 21,4 C 27,4 km/h (4 Bft)
20.04.2019 18:00 21,3 C 34 % 1024,4 hPa 0,0 mm 19,6 km/h (3 Bft) NW 319 15 min 4,8 C 21,3 C 33,8 km/h (5 Bft)
20.04.2019 17:45 21,4 C 33 % 1024,6 hPa 0,0 mm 18,1 km/h (3 Bft) N-NE 15 15 min 4,5 C 21,4 C 35,4 km/h (5 Bft)
20.04.2019 17:30 21,8 C 33 % 1024,6 hPa 0,0 mm 13,4 km/h (3 Bft) N 350 15 min 4,8 C 21,8 C 32,2 km/h (5 Bft)
20.04.2019 17:15 21,8 C 33 % 1024,7 hPa 0,0 mm 15,4 km/h (3 Bft) N-NW 344 15 min 4,8 C 21,8 C 27,4 km/h (4 Bft)
20.04.2019 17:00 21,8 C 32 % 1024,9 hPa 0,0 mm 14,7 km/h (3 Bft) N-NW 331 15 min 4,4 C 21,8 C 25,7 km/h (4 Bft)
20.04.2019 16:45 21,9 C 31 % 1025,0 hPa 0,0 mm 13,4 km/h (3 Bft) N 5 15 min 4,0 C 21,9 C 25,7 km/h (4 Bft)
20.04.2019 16:30 21,8 C 31 % 1025,1 hPa 0,0 mm 16,5 km/h (3 Bft) N 360 15 min 3,9 C 21,8 C 32,2 km/h (5 Bft)
20.04.2019 16:15 22,0 C 30 % 1025,3 hPa 0,0 mm 12,9 km/h (3 Bft) N-NW 333 15 min 3,6 C 22,0 C 25,7 km/h (4 Bft)
20.04.2019 16:00 21,8 C 31 % 1025,5 hPa 0,0 mm 16,7 km/h (3 Bft) N 350 15 min 3,9 C 21,8 C 32,2 km/h (5 Bft)
20.04.2019 15:45 22,2 C 30 % 1025,6 hPa 0,0 mm 17,4 km/h (3 Bft) N-NE 29 15 min 3,8 C 22,2 C 29,0 km/h (5 Bft)
20.04.2019 15:30 23,8 C 27 % 1025,9 hPa 0,0 mm 2,4 km/h (1 Bft) NW 312 15 min 3,7 C 23,8 C 19,3 km/h (3 Bft)
20.04.2019 15:15 23,0 C 26 % 1026,1 hPa 0,0 mm 4,9 km/h (1 Bft) NE 52 15 min 2,5 C 23,0 C 14,5 km/h (3 Bft)
20.04.2019 15:00 22,9 C 25 % 1026,2 hPa 0,0 mm 4,9 km/h (1 Bft) E-NE 68 15 min 1,8 C 22,9 C 20,9 km/h (4 Bft)
20.04.2019 14:45 23,4 C 26 % 1026,2 hPa 0,0 mm 1,6 km/h (1 Bft) E-SE 108 15 min 2,8 C 23,4 C 11,3 km/h (2 Bft)
20.04.2019 14:30 22,9 C 25 % 1026,4 hPa 0,0 mm 4,2 km/h (1 Bft) E 82 15 min 1,8 C 22,9 C 16,1 km/h (3 Bft)
20.04.2019 14:15 23,3 C 25 % 1026,4 hPa 0,0 mm 3,3 km/h (1 Bft) E-SE 117 15 min 2,2 C 23,3 C 17,7 km/h (3 Bft)
20.04.2019 14:00 22,8 C 26 % 1026,7 hPa 0,0 mm 3,6 km/h (1 Bft) N-NE 28 15 min 2,3 C 22,8 C 11,3 km/h (2 Bft)
20.04.2019 13:45 23,4 C 25 % 1026,8 hPa 0,0 mm 0,7 km/h (0 Bft) E-NE 66 15 min 2,3 C 23,4 C 12,9 km/h (3 Bft)
20.04.2019 13:30 23,6 C 31 % 1027,1 hPa 0,0 mm 0,3 km/h (0 Bft) S 177 15 min 5,5 C 23,6 C 4,8 km/h (1 Bft)
20.04.2019 13:15 22,1 C 34 % 1027,1 hPa 0,0 mm 3,0 km/h (1 Bft) NW 312 15 min 5,5 C 22,1 C 12,9 km/h (3 Bft)
20.04.2019 13:00 22,1 C 33 % 1027,3 hPa 0,0 mm 3,0 km/h (1 Bft) S 182 15 min 5,1 C 22,1 C 12,9 km/h (3 Bft)
20.04.2019 12:45 22,2 C 34 % 1027,5 hPa 0,0 mm 0,4 km/h (0 Bft) NE 40 15 min 5,6 C 22,2 C 6,4 km/h (2 Bft)
20.04.2019 12:30 21,6 C 36 % 1027,6 hPa 0,0 mm 0,4 km/h (0 Bft) W-NW 301 15 min 5,9 C 21,6 C 6,4 km/h (2 Bft)
20.04.2019 12:15 20,0 C 41 % 1027,7 hPa 0,0 mm 2,7 km/h (1 Bft) W-NW 299 15 min 6,3 C 20,0 C 9,7 km/h (2 Bft)
20.04.2019 12:00 18,8 C 43 % 1027,9 hPa 0,0 mm 2,4 km/h (1 Bft) W-NW 300 15 min 6,0 C 18,8 C 11,3 km/h (2 Bft)
20.04.2019 11:45 18,3 C 44 % 1027,9 hPa 0,0 mm 1,4 km/h (1 Bft) W-NW 302 15 min 5,8 C 18,3 C 8,0 km/h (2 Bft)
20.04.2019 11:30 17,6 C 46 % 1028,1 hPa 0,0 mm 2,1 km/h (1 Bft) W-NW 300 15 min 5,8 C 17,6 C 9,7 km/h (2 Bft)
20.04.2019 11:15 17,0 C 47 % 1028,2 hPa 0,0 mm 1,8 km/h (1 Bft) NW 315 15 min 5,6 C 17,0 C 8,0 km/h (2 Bft)
20.04.2019 11:00 16,2 C 49 % 1028,3 hPa 0,0 mm 0,3 km/h (0 Bft) NW 321 15 min 5,5 C 16,2 C 6,4 km/h (2 Bft)
20.04.2019 10:45 15,5 C 51 % 1028,4 hPa 0,0 mm 0,0 km/h (0 Bft) NW 319 15 min 5,4 C 15,5 C 0,0 km/h (0 Bft)
20.04.2019 10:30 14,6 C 54 % 1028,5 hPa 0,0 mm 0,0 km/h (0 Bft) NW 313 15 min 5,4 C 14,6 C 0,0 km/h (0 Bft)
20.04.2019 10:15 13,4 C 55 % 1028,6 hPa 0,0 mm 0,0 km/h (0 Bft) NW 313 15 min 4,5 C 13,4 C 0,0 km/h (0 Bft)
20.04.2019 10:00 13,2 C 57 % 1028,7 hPa 0,0 mm 0,0 km/h (0 Bft) NW 317 15 min 4,9 C 13,2 C 0,0 km/h (0 Bft)
20.04.2019 09:45 12,1 C 59 % 1028,8 hPa 0,0 mm 0,0 km/h (0 Bft) N 360 15 min 4,3 C 12,1 C 0,0 km/h (0 Bft)
20.04.2019 09:30 11,4 C 63 % 1028,8 hPa 0,0 mm 0,0 km/h (0 Bft) N 360 15 min 4,6 C 11,4 C 1,6 km/h (1 Bft)
20.04.2019 09:15 10,9 C 65 % 1028,9 hPa 0,0 mm 0,0 km/h (0 Bft) SE 139 15 min 4,6 C 10,9 C 0,0 km/h (0 Bft)
20.04.2019 09:00 10,1 C 67 % 1028,9 hPa 0,0 mm 0,0 km/h (0 Bft) S-SE 153 15 min 4,3 C 10,1 C 0,0 km/h (0 Bft)
20.04.2019 08:45 9,3 C 70 % 1029,0 hPa 0,0 mm 0,0 km/h (0 Bft) S-SE 153 15 min 4,1 C 9,3 C 0,0 km/h (0 Bft)
20.04.2019 08:30 8,1 C 74 % 1028,9 hPa 0,0 mm 0,0 km/h (0 Bft) S-SE 153 15 min 3,8 C 8,1 C 0,0 km/h (0 Bft)
20.04.2019 08:15 7,2 C 77 % 1028,9 hPa 0,0 mm 0,0 km/h (0 Bft) S-SE 148 15 min 3,4 C 7,2 C 0,0 km/h (0 Bft)
20.04.2019 08:00 6,4 C 79 % 1028,9 hPa 0,0 mm 0,0 km/h (0 Bft) S-SE 153 15 min 3,0 C 6,4 C 0,0 km/h (0 Bft)
20.04.2019 07:45 5,8 C 81 % 1028,8 hPa 0,0 mm 0,0 km/h (0 Bft) S-SE 152 15 min 2,8 C 5,8 C 0,0 km/h (0 Bft)
20.04.2019 07:30 5,3 C 83 % 1028,8 hPa 0,0 mm 0,0 km/h (0 Bft) S-SE 152 0 min 2,7 C 5,3 C 0,0 km/h (0 Bft)
20.04.2019 07:15 4,8 C 85 % 1028,8 hPa 0,0 mm 0,0 km/h (0 Bft) S-SE 152 0 min 2,5 C 4,8 C 0,0 km/h (0 Bft)
20.04.2019 07:00 4,3 C 85 % 1028,6 hPa 0,0 mm 0,0 km/h (0 Bft) S-SE 152 0 min 2,0 C 4,3 C 0,0 km/h (0 Bft)
20.04.2019 06:45 4,2 C 85 % 1028,6 hPa 0,0 mm 0,0 km/h (0 Bft) S-SE 153 0 min 1,9 C 4,2 C 0,0 km/h (0 Bft)
20.04.2019 06:30 4,4 C 84 % 1028,5 hPa 0,0 mm 0,0 km/h (0 Bft) S-SE 154 0 min 1,9 C 4,4 C 0,0 km/h (0 Bft)
20.04.2019 06:15 4,7 C 85 % 1028,4 hPa 0,0 mm 0,0 km/h (0 Bft) S-SE 153 0 min 2,4 C 4,7 C 0,0 km/h (0 Bft)
20.04.2019 06:00 4,9 C 83 % 1028,4 hPa 0,0 mm 0,0 km/h (0 Bft) S-SE 151 0 min 2,3 C 4,9 C 0,0 km/h (0 Bft)
20.04.2019 05:45 4,9 C 83 % 1028,4 hPa 0,0 mm 0,0 km/h (0 Bft) S-SE 150 0 min 2,3 C 4,9 C 0,0 km/h (0 Bft)
20.04.2019 05:30 5,0 C 83 % 1028,3 hPa 0,0 mm 0,0 km/h (0 Bft) S-SE 150 0 min 2,4 C 5,0 C 0,0 km/h (0 Bft)
20.04.2019 05:15 5,0 C 83 % 1028,4 hPa 0,0 mm 0,0 km/h (0 Bft) S-SE 150 0 min 2,4 C 5,0 C 0,0 km/h (0 Bft)
20.04.2019 05:00 5,2 C 82 % 1028,4 hPa 0,0 mm 0,0 km/h (0 Bft) S-SE 151 0 min 2,4 C 5,2 C 0,0 km/h (0 Bft)
_ Min-Time 06:45 13:45 04:45 - 05:00 - - - 14:30 06:45 05:00
Minimum _ 4,2 C 25 % 1023,1 hPa - 0,0 km/h (0 Bft) - - - 1,8 C 4,2 C 0,0 km/h (0 Bft)
_ Max-Time 15:30 06:15 08:45 05:00 18:00 - - 07:45 12:15 15:30 17:45
Maximum _ 23,8 C 85 % 1029,0 hPa 0,0 mm 19,6 km/h
NW (3 Bft)
- - 15 min 6,3 C 23,8 C 35,4 km/h
N-NE (5 Bft)
Average _ 13,8 C 56 % 1026,2 hPa #0,0 mm 3,2 km/h (1 Bft) NW - #0 min. 3,8 C 13,8 C 7,6 km/h (2 Bft)